Time;durP1;ratioP1;P1;durP2;ratioP2;P2;SDS_P1;SDS_P2;PMS_P1;PMS_P2;Temp;Humidity;BMP_temperature;BMP_pressure;BME280_temperature;BME280_humidity;BME280_pressure;Samples;Min_cycle;Max_cycle;Signal;HPM_P1;HPM_P2
2021/04/15 00:01:46;;;;;;;16.23;6.07;;;;;;;0.94;100.00;103085.28;5167014;28;20027;-77
2021/04/15 00:04:16;;;;;;;14.70;5.80;;;;;;;0.89;100.00;103082.78;5167123;28;20022;-78
2021/04/15 00:06:47;;;;;;;13.18;5.88;;;;;;;0.90;100.00;103084.50;5166873;28;20027;-78
2021/04/15 00:09:22;;;;;;;16.17;6.30;;;;;;;0.90;100.00;103086.28;5165703;28;20110;-76
2021/04/15 00:11:53;;;;;;;13.63;5.00;;;;;;;0.93;100.00;103073.84;5167300;28;20025;-77
2021/04/15 00:14:24;;;;;;;11.07;5.40;;;;;;;0.97;100.00;103077.25;5167150;28;20039;-77
2021/04/15 00:16:54;;;;;;;16.10;5.32;;;;;;;1.02;100.00;103081.47;5165821;28;20024;-77
2021/04/15 00:19:25;;;;;;;12.52;5.50;;;;;;;0.99;100.00;103075.41;5166582;28;20438;-77
2021/04/15 00:21:55;;;;;;;10.45;4.75;;;;;;;0.94;100.00;103080.84;5166564;28;20471;-77
2021/04/15 00:24:26;;;;;;;12.20;5.13;;;;;;;0.88;100.00;103072.25;5166743;28;20473;-77
2021/04/15 00:26:57;;;;;;;14.77;5.10;;;;;;;0.85;100.00;103072.34;5166773;28;20391;-77
2021/04/15 00:29:27;;;;;;;10.45;5.55;;;;;;;0.84;100.00;103073.25;5166438;28;20026;-76
2021/04/15 00:31:58;;;;;;;11.75;4.90;;;;;;;0.81;100.00;103076.03;5165436;28;20034;-76
2021/04/15 00:34:28;;;;;;;13.27;5.68;;;;;;;0.78;100.00;103067.25;5166714;28;20030;-76
2021/04/15 00:36:58;;;;;;;10.45;4.82;;;;;;;0.73;100.00;103063.91;5166807;28;20073;-76
2021/04/15 00:39:29;;;;;;;10.50;4.78;;;;;;;0.73;100.00;103066.53;5166100;28;20034;-77
2021/04/15 00:41:59;;;;;;;8.95;4.32;;;;;;;0.72;100.00;103064.81;5166061;28;20373;-77
2021/04/15 00:44:30;;;;;;;13.32;4.47;;;;;;;0.71;100.00;103059.59;5166384;28;20034;-76
2021/04/15 00:47:07;;;;;;;12.90;5.85;;;;;;;0.66;100.00;103061.53;5166154;28;20416;-76
2021/04/15 00:49:50;;;;;;;19.33;5.00;;;;;;;0.65;100.00;103059.75;5166094;28;20026;-77
2021/04/15 00:52:24;;;;;;;11.57;4.22;;;;;;;0.65;100.00;103059.75;5154282;28;20384;-76
2021/04/15 00:54:59;;;;;;;11.20;4.93;;;;;;;0.62;100.00;103055.47;5166037;28;20030;-77
2021/04/15 00:57:33;;;;;;;11.52;4.18;;;;;;;0.59;100.00;103058.19;5166435;28;20058;-77
2021/04/15 01:00:07;;;;;;;10.38;5.00;;;;;;;0.58;100.00;103055.59;5166356;28;20442;-77
2021/04/15 01:02:38;;;;;;;13.70;4.43;;;;;;;0.56;100.00;103057.44;5166421;28;20026;-77
2021/04/15 01:05:18;;;;;;;10.50;4.07;;;;;;;0.54;100.00;103059.25;5166418;28;20400;-77
2021/04/15 01:07:50;;;;;;;8.07;3.70;;;;;;;0.50;100.00;103047.91;5166255;28;20035;-78
2021/04/15 01:10:23;;;;;;;6.60;3.80;;;;;;;0.48;100.00;103047.09;5165672;28;20029;-79
2021/04/15 01:13:17;;;;;;;10.57;4.10;;;;;;;0.44;100.00;103064.81;5165657;28;20026;-77
2021/04/15 01:15:54;;;;;;;10.15;4.30;;;;;;;0.41;100.00;103054.34;5166152;28;20105;-78
2021/04/15 01:18:41;;;;;;;15.45;4.82;;;;;;;0.36;100.00;103058.91;5165895;28;20093;-77
2021/04/15 01:21:39;;;;;;;9.38;4.28;;;;;;;0.32;100.00;103056.41;5165465;28;20506;-77
2021/04/15 01:24:18;;;;;;;11.98;4.70;;;;;;;0.27;100.00;103061.81;5165719;28;20050;-77
2021/04/15 01:27:17;;;;;;;10.23;4.63;;;;;;;0.25;100.00;103063.63;5157977;28;20455;-76
2021/04/15 01:30:00;;;;;;;12.93;4.80;;;;;;;0.20;100.00;103057.63;5165622;28;20118;-76
2021/04/15 01:32:40;;;;;;;15.60;5.22;;;;;;;0.15;100.00;103060.41;5165567;28;20022;-76
2021/04/15 01:35:20;;;;;;;11.38;4.22;;;;;;;0.12;100.00;103057.84;5165938;28;20037;-77
2021/04/15 01:38:01;;;;;;;11.07;4.57;;;;;;;0.08;100.00;103053.56;5166186;28;20022;-77
2021/04/15 01:40:35;;;;;;;8.27;3.60;;;;;;;0.05;100.00;103055.44;5165533;28;20396;-76
2021/04/15 01:43:13;;;;;;;11.68;4.28;;;;;;;0.04;100.00;103057.19;5165198;28;20034;-77
2021/04/15 01:45:47;;;;;;;11.93;4.10;;;;;;;0.04;100.00;103054.56;5165719;28;20026;-77
2021/04/15 01:48:24;;;;;;;7.07;3.30;;;;;;;0.02;100.00;103056.41;5165044;28;20030;-77
2021/04/15 01:51:01;;;;;;;12.13;3.95;;;;;;;-0.04;100.00;103051.31;5165354;28;20394;-77
2021/04/15 01:53:41;;;;;;;8.50;3.78;;;;;;;-0.06;100.00;103053.97;5165239;28;20027;-78
2021/04/15 01:56:21;;;;;;;12.02;4.50;;;;;;;-0.10;100.00;103051.44;5165415;28;20037;-76
2021/04/15 01:58:56;;;;;;;8.27;4.00;;;;;;;-0.09;100.00;103050.56;5165370;28;20506;-76
2021/04/15 02:01:31;;;;;;;11.90;4.03;;;;;;;-0.17;100.00;103040.22;5164054;28;20038;-76
2021/04/15 02:04:07;;;;;;;14.38;3.78;;;;;;;-0.28;100.00;103044.94;5164994;28;20030;-76
2021/04/15 02:06:46;;;;;;;8.07;3.53;;;;;;;-0.36;100.00;103049.53;5164985;28;20121;-80
2021/04/15 02:09:24;;;;;;;12.25;3.83;;;;;;;-0.40;100.00;103047.91;5165322;28;20553;-76
2021/04/15 02:12:09;;;;;;;9.98;4.15;;;;;;;-0.46;100.00;103048.06;5164704;28;20041;-76
2021/04/15 02:14:45;;;;;;;9.60;4.32;;;;;;;-0.50;100.00;103054.31;5163441;28;20026;-77
2021/04/15 02:17:17;;;;;;;12.60;4.72;;;;;;;-0.46;100.00;103059.47;5164406;28;20030;-77
2021/04/15 02:19:52;;;;;;;16.65;5.47;;;;;;;-0.43;100.00;103056.78;5164549;28;20365;-77
2021/04/15 02:22:46;;;;;;;9.25;4.05;;;;;;;-0.40;100.00;103055.81;5163693;28;20022;-78
2021/04/15 02:25:26;;;;;;;9.30;3.45;;;;;;;-0.42;100.00;103052.34;5164911;28;20030;-78
2021/04/15 02:28:03;;;;;;;8.27;3.78;;;;;;;-0.49;100.00;103054.31;5157028;28;20037;-79
2021/04/15 02:30:44;;;;;;;14.77;3.90;;;;;;;-0.54;100.00;103061.47;5164231;28;20084;-77
2021/04/15 02:33:25;;;;;;;13.60;4.35;;;;;;;-0.56;100.00;103056.22;5164590;28;20487;-78
2021/04/15 02:36:01;;;;;;;13.20;4.35;;;;;;;-0.58;100.00;103058.03;5164477;28;20476;-77
2021/04/15 02:38:44;;;;;;;12.48;5.00;;;;;;;-0.56;100.00;103060.63;5164430;28;20061;-77
2021/04/15 02:41:19;;;;;;;12.63;6.07;;;;;;;-0.57;100.00;103059.78;5164268;28;20383;-76
2021/04/15 02:43:55;;;;;;;;;;;;;;;-0.59;100.00;103058.09;5164432;28;20558;-77
2021/04/15 02:46:31;;;;;;;;;;;;;;;-0.61;100.00;103062.53;5165485;28;19964;-77
2021/04/15 02:49:05;;;;;;;13.00;4.28;;;;;;;-0.62;100.00;103064.28;5163953;28;19952;-80
2021/04/15 02:51:42;;;;;;;15.82;4.88;;;;;;;-0.64;100.00;103062.63;5164201;28;20026;-77
2021/04/15 02:54:19;;;;;;;17.08;5.45;;;;;;;-0.64;100.00;103052.06;5164339;28;20121;-77
2021/04/15 02:56:57;;;;;;;13.45;5.28;;;;;;;-0.66;100.00;103056.50;5164156;28;20038;-77
2021/04/15 02:59:37;;;;;;;11.23;5.53;;;;;;;-0.67;100.00;103052.16;5164363;28;20057;-77
2021/04/15 03:02:11;;;;;;;9.88;4.22;;;;;;;-0.70;100.00;103054.84;5164006;28;20058;-77
2021/04/15 03:04:50;;;;;;;13.13;5.00;;;;;;;-0.71;100.00;103061.03;5163904;28;20052;-79
2021/04/15 03:07:23;;;;;;;12.95;4.60;;;;;;;-0.70;100.00;103060.13;5163800;28;20058;-77
2021/04/15 03:09:57;;;;;;;13.55;4.40;;;;;;;-0.71;100.00;103053.13;5163873;28;20022;-76
2021/04/15 03:12:35;;;;;;;14.23;5.20;;;;;;;-0.70;100.00;103052.22;5163849;28;20105;-80
2021/04/15 03:15:17;;;;;;;15.48;5.85;;;;;;;-0.70;100.00;103060.13;5164117;28;20019;-77
2021/04/15 03:17:51;;;;;;;13.02;5.22;;;;;;;-0.69;100.00;103060.09;5163482;28;20117;-76
2021/04/15 03:20:28;;;;;;;16.25;5.25;;;;;;;-0.68;100.00;103060.97;5163730;28;20093;-77
2021/04/15 03:23:07;;;;;;;20.48;5.95;;;;;;;-0.71;100.00;103059.25;5163286;28;20026;-76
2021/04/15 03:25:40;;;;;;;15.90;5.65;;;;;;;-0.73;100.00;103052.31;5161746;28;20134;-77
2021/04/15 03:28:16;;;;;;;13.98;4.78;;;;;;;-0.72;100.00;103061.94;5157831;28;20022;-76
2021/04/15 03:30:53;;;;;;;16.42;5.90;;;;;;;-0.75;100.00;103057.63;5163612;28;20049;-77
2021/04/15 03:33:34;;;;;;;13.23;5.32;;;;;;;-0.79;100.00;103059.47;5163778;28;20519;-76
2021/04/15 03:36:12;;;;;;;16.05;5.35;;;;;;;-0.81;100.00;103055.13;5151172;28;20427;-76
2021/04/15 03:38:51;;;;;;;13.85;4.88;;;;;;;-0.82;100.00;103056.91;5163260;28;20553;-79
2021/04/15 03:41:31;;;;;;;15.65;5.18;;;;;;;-0.84;100.00;103064.00;5163616;28;20036;-76
2021/04/15 03:44:06;;;;;;;10.65;4.82;;;;;;;-0.86;100.00;103064.91;5162316;28;20030;-76
2021/04/15 03:46:43;;;;;;;18.17;5.40;;;;;;;-0.96;100.00;103061.66;5163701;28;20038;-77
2021/04/15 03:49:21;;;;;;;12.88;4.93;;;;;;;-1.02;100.00;103063.56;5163048;28;20014;-76
2021/04/15 03:51:57;;;;;;;14.25;5.00;;;;;;;-1.05;100.00;103064.53;5163375;28;20514;-77
2021/04/15 03:54:35;;;;;;;14.88;5.10;;;;;;;-1.09;100.00;103068.13;5163876;28;20054;-77
2021/04/15 03:57:12;;;;;;;13.48;5.40;;;;;;;-1.09;100.00;103065.50;5163454;28;20053;-77
2021/04/15 03:59:48;;;;;;;14.93;6.30;;;;;;;-1.11;100.00;103065.53;5163018;28;20109;-78
2021/04/15 04:02:32;;;;;;;18.60;5.80;;;;;;;-1.04;100.00;103068.91;5163475;28;20037;-78
2021/04/15 04:05:08;;;;;;;16.13;5.30;;;;;;;-1.07;100.00;103068.97;5163491;28;20037;-77
2021/04/15 04:07:45;;;;;;;14.15;5.90;;;;;;;-1.11;100.00;103064.66;5163220;28;20038;-77
2021/04/15 04:10:18;;;;;;;25.30;6.72;;;;;;;-1.09;100.00;103068.13;5163544;28;20026;-76
2021/04/15 04:12:53;;;;;;;30.80;7.00;;;;;;;-1.11;100.00;103068.16;5163302;28;20022;-76
2021/04/15 04:15:29;;;;;;;11.90;5.30;;;;;;;-1.11;100.00;103072.56;5163617;28;20066;-77
2021/04/15 04:17:59;;;;;;;16.35;6.22;;;;;;;-1.12;100.00;103070.84;5163243;28;20014;-77
2021/04/15 04:20:32;;;;;;;22.73;7.55;;;;;;;-1.16;100.00;103075.31;5162757;28;20037;-76
2021/04/15 04:23:12;;;;;;;20.88;7.18;;;;;;;-1.14;100.00;103075.28;5162162;28;20033;-76
2021/04/15 04:25:49;;;;;;;27.15;9.00;;;;;;;-1.15;100.00;103070.94;5160865;28;20571;-76
2021/04/15 04:28:27;;;;;;;25.75;8.68;;;;;;;-1.15;100.00;103068.28;5159077;28;20030;-76
2021/04/15 04:31:05;;;;;;;29.33;7.43;;;;;;;-1.13;100.00;103069.09;5161796;28;20119;-76
2021/04/15 04:33:42;;;;;;;19.42;8.07;;;;;;;-1.13;100.00;103064.69;5163115;28;20088;-77
2021/04/15 04:36:15;;;;;;;23.58;8.10;;;;;;;-1.13;100.00;103066.47;5163308;28;20026;-77
2021/04/15 04:38:46;;;;;;;26.13;9.18;;;;;;;-1.09;100.00;103068.13;5162943;28;20154;-76
2021/04/15 04:41:27;;;;;;;33.45;10.57;;;;;;;-1.02;100.00;103072.34;5162702;28;20030;-76
2021/04/15 04:44:10;;;;;;;27.10;10.75;;;;;;;-0.93;100.00;103066.00;5161438;28;20058;-76
2021/04/15 04:46:46;;;;;;;30.30;9.88;;;;;;;-0.82;100.00;103071.84;5165108;28;20514;-76
2021/04/15 04:49:24;;;;;;;30.17;9.85;;;;;;;-0.83;100.00;103072.75;5166398;28;20034;-76
2021/04/15 04:52:03;;;;;;;38.95;9.07;;;;;;;-0.88;100.00;103067.59;5166445;28;20515;-76
2021/04/15 04:54:39;;;;;;;19.45;7.53;;;;;;;-0.97;100.00;103074.88;5166751;28;20026;-76
2021/04/15 04:57:16;;;;;;;18.38;6.82;;;;;;;-1.05;100.00;103075.94;5154225;28;20026;-76
2021/04/15 04:59:52;;;;;;;22.60;7.15;;;;;;;-1.08;100.00;103075.13;5165994;28;20034;-76
2021/04/15 05:02:23;;;;;;;19.98;8.07;;;;;;;-1.09;100.00;103083.94;5166461;28;20027;-76
2021/04/15 05:05:00;;;;;;;22.83;7.40;;;;;;;-1.09;100.00;103082.19;5166378;28;20503;-77
2021/04/15 05:07:34;;;;;;;20.50;6.38;;;;;;;-1.14;100.00;103091.09;5166398;28;20027;-76
2021/04/15 05:10:06;;;;;;;22.25;6.90;;;;;;;-1.17;100.00;103088.53;5153625;28;20034;-76
2021/04/15 05:12:37;;;;;;;19.05;7.03;;;;;;;-1.18;100.00;103086.78;5165917;28;20030;-76
2021/04/15 05:15:08;;;;;;;25.40;7.75;;;;;;;-1.15;100.00;103092.00;5166315;28;20526;-75
2021/04/15 05:17:41;;;;;;;19.42;7.32;;;;;;;-1.10;100.00;103095.41;5166306;28;20038;-78
2021/04/15 05:20:16;;;;;;;22.13;8.13;;;;;;;-1.05;100.00;103099.66;5165845;28;20034;-75
2021/04/15 05:22:54;;;;;;;;;;;;;;;-1.02;100.00;103101.31;5165862;28;20019;-76
2021/04/15 05:25:35;;;;;;;20.48;6.50;;;;;;;-0.97;100.00;103099.44;5166062;28;19909;-76
2021/04/15 05:28:11;;;;;;;16.65;7.07;;;;;;;-0.93;100.00;103100.25;5166020;28;20037;-76
2021/04/15 05:30:47;;;;;;;19.83;6.95;;;;;;;-0.81;100.00;103107.84;5162069;28;20026;-76
2021/04/15 05:33:22;;;;;;;19.02;7.28;;;;;;;-0.69;100.00;103109.31;5165499;28;20085;-75
2021/04/15 05:36:04;;;;;;;23.20;6.95;;;;;;;-0.58;100.00;103102.00;5165844;28;20019;-77
2021/04/15 05:38:40;;;;;;;14.38;6.22;;;;;;;-0.48;100.00;103111.41;5165780;28;20121;-76
2021/04/15 05:41:30;;;;;;;12.90;5.57;;;;;;;-0.42;100.00;103107.75;5165717;28;20116;-75
2021/04/15 05:44:16;;;;;;;13.95;6.00;;;;;;;-0.38;100.00;103107.63;5164241;28;20082;-76
2021/04/15 05:46:49;;;;;;;14.40;5.35;;;;;;;-0.28;100.00;103111.75;5165712;28;20054;-76
2021/04/15 05:49:25;;;;;;;22.48;5.55;;;;;;;0.04;100.00;103117.91;5165580;28;20041;-76
2021/04/15 05:52:04;;;;;;;18.58;7.03;;;;;;;0.40;100.00;103115.13;5165085;28;20456;-76
2021/04/15 05:54:36;;;;;;;18.35;5.25;;;;;;;0.89;100.00;103110.97;5165804;28;20026;-77
2021/04/15 05:57:15;;;;;;;28.45;6.10;;;;;;;1.12;100.00;103108.47;5165055;28;20045;-77
2021/04/15 05:59:57;;;;;;;21.75;6.10;;;;;;;1.53;100.00;103106.22;5165094;28;20022;-77
2021/04/15 06:02:33;;;;;;;18.13;7.90;;;;;;;2.67;100.00;103106.44;5164920;28;20034;-76
2021/04/15 06:05:26;;;;;;;21.40;7.20;;;;;;;3.17;100.00;103115.94;5165291;28;20102;-77
2021/04/15 06:08:00;;;;;;;23.23;7.43;;;;;;;3.36;100.00;103111.56;5165190;28;20396;-76
2021/04/15 06:10:35;;;;;;;13.50;5.57;;;;;;;2.96;100.00;103112.34;5165058;28;20026;-81
2021/04/15 06:13:12;;;;;;;15.10;6.95;;;;;;;2.57;100.00;103115.66;5164996;28;20101;-76
2021/04/15 06:15:46;;;;;;;17.65;6.82;;;;;;;2.25;100.00;103111.56;5165755;28;20424;-76
2021/04/15 06:18:31;;;;;;;19.70;8.48;;;;;;;2.06;100.00;103106.97;5164918;28;20042;-76
2021/04/15 06:21:05;;;;;;;;;;;;;;;2.03;100.00;103112.38;5164998;28;20022;-75
2021/04/15 06:23:45;;;;;;;26.55;10.68;;;;;;;2.00;100.00;103109.81;5165019;28;19918;-76
2021/04/15 06:26:28;;;;;;;30.10;11.43;;;;;;;2.04;100.00;103115.88;5164701;28;20027;-78
2021/04/15 06:29:03;;;;;;;21.58;10.85;;;;;;;2.14;100.00;103117.28;5164346;28;20496;-77
2021/04/15 06:31:39;;;;;;;24.55;11.02;;;;;;;2.25;100.00;103117.72;5163321;28;20033;-79
2021/04/15 06:34:12;;;;;;;31.10;11.10;;;;;;;2.36;100.00;103113.81;5164396;28;20061;-75
2021/04/15 06:36:58;;;;;;;29.52;11.65;;;;;;;2.53;100.00;103108.75;5164649;28;20027;-76
2021/04/15 06:39:36;;;;;;;27.73;11.00;;;;;;;2.74;100.00;103115.00;5164343;28;20057;-77
2021/04/15 06:42:20;;;;;;;26.38;12.20;;;;;;;2.94;100.00;103106.25;5163844;28;20030;-76
2021/04/15 06:44:50;;;;;;;35.78;11.73;;;;;;;3.14;100.00;103111.63;5164490;28;20097;-75
2021/04/15 06:47:34;;;;;;;30.75;11.90;;;;;;;3.35;100.00;103115.16;5164100;28;20022;-75
2021/04/15 06:50:16;;;;;;;27.48;11.07;;;;;;;3.51;100.00;103112.72;5163928;28;20080;-76
2021/04/15 06:53:05;;;;;;;22.17;9.55;;;;;;;3.71;100.00;103115.38;5164362;28;20019;-77
2021/04/15 06:55:48;;;;;;;22.83;8.23;;;;;;;3.92;100.00;103118.06;5151912;28;20037;-76
2021/04/15 06:58:31;;;;;;;21.42;8.60;;;;;;;4.05;100.00;103124.53;5164114;28;20026;-76
2021/04/15 07:01:15;;;;;;;20.98;7.20;;;;;;;4.25;100.00;103124.50;5164363;28;20488;-79
2021/04/15 07:04:08;;;;;;;19.33;7.78;;;;;;;4.29;100.00;103112.78;5158916;28;20057;-76
2021/04/15 07:06:46;;;;;;;23.23;7.10;;;;;;;4.30;100.00;103113.66;5161374;28;20031;-78
2021/04/15 07:09:30;;;;;;;26.73;7.90;;;;;;;4.56;100.00;103117.75;5161838;28;20038;-75
2021/04/15 07:12:09;;;;;;;18.85;7.72;;;;;;;4.81;100.00;103120.97;5162291;28;20100;-76
2021/04/15 07:14:58;;;;;;;16.33;6.93;;;;;;;4.99;100.00;103113.91;5162704;28;20030;-76
2021/04/15 07:18:02;;;;;;;19.63;7.35;;;;;;;5.34;100.00;103117.50;5162707;28;20043;-76
2021/04/15 07:20:54;;;;;;;16.05;6.40;;;;;;;5.50;100.00;103119.38;5162472;28;20151;-76
2021/04/15 07:23:53;;;;;;;16.08;6.43;;;;;;;5.70;100.00;103111.22;5157933;28;20360;-79
2021/04/15 07:26:40;;;;;;;13.40;6.32;;;;;;;5.71;100.00;103113.81;5154850;28;20026;-75
2021/04/15 07:30:04;;;;;;;10.73;4.93;;;;;;;5.96;100.00;103104.56;5162198;28;20033;-77
2021/04/15 07:32:48;;;;;;;11.13;3.83;;;;;;;6.18;100.00;103109.63;5162031;28;20113;-77
2021/04/15 07:35:31;;;;;;;15.57;3.78;;;;;;;6.38;100.00;103101.41;5162657;28;20030;-78
2021/04/15 07:38:22;;;;;;;12.85;4.45;;;;;;;6.31;100.00;103105.34;5163025;28;20033;-76
2021/04/15 07:41:13;;;;;;;14.30;5.00;;;;;;;6.23;100.00;103102.25;5161861;28;20030;-79
2021/04/15 07:44:14;;;;;;;11.13;4.30;;;;;;;6.67;100.00;103099.78;5161006;28;20029;-76
2021/04/15 07:46:50;;;;;;;8.35;3.83;;;;;;;7.38;100.00;103109.97;5162402;28;20045;-76
2021/04/15 07:49:28;;;;;;;7.28;3.40;;;;;;;7.71;100.00;103114.22;5162177;28;20024;-76
2021/04/15 07:52:11;;;;;;;11.13;4.30;;;;;;;7.75;100.00;103110.41;5162114;28;20062;-76
2021/04/15 07:55:19;;;;;;;12.70;4.47;;;;;;;7.87;100.00;103109.66;5162163;28;20395;-76
2021/04/15 07:58:16;;;;;;;9.55;3.55;;;;;;;7.76;100.00;103114.81;5162593;28;20061;-79
2021/04/15 08:01:18;;;;;;;12.43;4.65;;;;;;;7.94;100.00;103111.03;5151884;28;20483;-77
2021/04/15 08:04:04;;;;;;;9.07;4.10;;;;;;;7.77;100.00;103114.72;5150558;28;20038;-76
2021/04/15 08:07:04;;;;;;;10.85;3.47;;;;;;;7.87;100.00;103119.50;5162452;28;20033;-76
2021/04/15 08:09:58;;;;;;;9.23;3.28;;;;;;;8.17;100.00;103116.75;5161477;28;20121;-76
2021/04/15 08:12:50;;;;;;;11.45;3.75;;;;;;;8.27;100.00;103120.56;5161273;28;20022;-77
2021/04/15 08:15:58;;;;;;;9.98;3.33;;;;;;;8.18;100.00;103110.44;5152049;28;20022;-76
2021/04/15 08:18:38;;;;;;;10.70;3.42;;;;;;;7.96;100.00;103111.78;5150828;28;20030;-78
2021/04/15 08:21:18;;;;;;;9.82;3.30;;;;;;;8.05;100.00;103119.25;5162615;28;20053;-76
2021/04/15 08:24:14;;;;;;;9.38;2.50;;;;;;;8.28;100.00;103115.16;5165759;28;20026;-76
2021/04/15 08:27:13;;;;;;;11.52;3.17;;;;;;;8.23;100.00;103117.25;5149209;28;20034;-76
2021/04/15 08:29:57;;;;;;;6.57;3.05;;;;;;;8.07;100.00;103120.94;5167685;28;20331;-76
2021/04/15 08:32:52;;;;;;;9.82;2.92;;;;;;;8.14;100.00;103127.66;5164787;28;20125;-78
2021/04/15 08:35:55;;;;;;;10.35;3.10;;;;;;;8.22;100.00;103122.69;5165625;28;20579;-76
2021/04/15 08:38:34;;;;;;;8.88;3.63;;;;;;;8.28;100.00;103124.97;5165371;28;20034;-75
2021/04/15 08:41:20;;;;;;;15.57;3.17;;;;;;;8.19;100.00;103129.09;5165452;28;20436;-76
2021/04/15 08:44:12;;;;;;;7.47;2.80;;;;;;;8.01;100.00;103123.03;5165436;28;20030;-75
2021/04/15 08:46:54;;;;;;;11.70;3.80;;;;;;;7.81;100.00;103117.22;5165729;28;20391;-77
2021/04/15 08:49:46;;;;;;;7.47;3.55;;;;;;;7.68;100.00;103114.41;5165187;28;20061;-76
2021/04/15 08:52:34;;;;;;;8.32;3.00;;;;;;;7.53;100.00;103118.88;5152965;28;20084;-75
2021/04/15 08:55:09;;;;;;;11.55;2.67;;;;;;;7.36;100.00;103113.66;5165756;28;20432;-76
2021/04/15 08:58:18;;;;;;;11.73;2.92;;;;;;;7.11;100.00;103117.75;5165435;28;20046;-76
2021/04/15 09:00:59;;;;;;;12.13;3.30;;;;;;;7.00;100.00;103118.38;5155871;28;20038;-80
2021/04/15 09:03:47;;;;;;;9.00;2.72;;;;;;;7.05;100.00;103110.09;5164344;28;20030;-77
2021/04/15 09:06:27;;;;;;;6.72;2.97;;;;;;;7.08;100.00;103114.38;5165527;28;20034;-76
2021/04/15 09:09:04;;;;;;;6.53;2.67;;;;;;;7.04;100.00;103112.88;5165521;28;20026;-76
2021/04/15 09:11:41;;;;;;;33.50;6.32;;;;;;;7.36;100.00;103117.19;5164567;28;20094;-77
2021/04/15 09:14:33;;;;;;;5.07;2.47;;;;;;;7.81;100.00;103111.84;5164597;28;20056;-76
2021/04/15 09:17:08;;;;;;;12.70;3.50;;;;;;;8.15;100.00;103116.00;5165338;28;20018;-76
2021/04/15 09:19:56;;;;;;;9.32;3.13;;;;;;;8.38;100.00;103112.75;5164655;28;20443;-75
2021/04/15 09:22:42;;;;;;;10.82;3.45;;;;;;;8.57;100.00;103117.81;5163825;28;20091;-76
2021/04/15 09:25:27;;;;;;;6.35;3.45;;;;;;;9.07;100.00;103113.66;5165266;28;20380;-76
2021/04/15 09:28:22;;;;;;;6.90;3.10;;;;;;;9.28;100.00;103111.38;5157900;28;20038;-77
2021/04/15 09:31:02;;;;;;;6.60;3.27;;;;;;;9.31;100.00;103119.22;5161632;28;20068;-78
2021/04/15 09:33:48;;;;;;;8.55;3.25;;;;;;;8.99;100.00;103113.34;5162358;28;20305;-77
2021/04/15 09:36:52;;;;;;;10.75;3.33;;;;;;;9.08;100.00;103115.38;5165920;28;20057;-78
2021/04/15 09:39:48;;;;;;;10.40;3.72;;;;;;;8.70;100.00;103116.06;5164504;28;20112;-76
2021/04/15 09:42:37;;;;;;;11.88;3.20;;;;;;;8.86;100.00;103115.09;5164043;28;20104;-76
2021/04/15 09:45:21;;;;;;;9.68;3.28;;;;;;;8.74;100.00;103116.75;5164033;28;20121;-76
2021/04/15 09:48:07;;;;;;;4.78;2.60;;;;;;;8.65;100.00;103118.19;5164715;28;20022;-77
2021/04/15 09:50:52;;;;;;;8.98;2.55;;;;;;;8.94;100.00;103105.59;5163923;28;20026;-76
2021/04/15 09:53:39;;;;;;;9.70;2.35;;;;;;;8.74;100.00;103112.25;5163816;28;20026;-77
2021/04/15 09:56:25;;;;;;;6.97;2.85;;;;;;;8.19;100.00;103110.38;5164606;28;20135;-75
2021/04/15 09:59:15;;;;;;;9.60;2.63;;;;;;;8.25;100.00;103109.97;5152567;28;20105;-77
2021/04/15 10:01:51;;;;;;;9.95;3.35;;;;;;;8.14;100.00;103115.16;5163563;28;20030;-77
2021/04/15 10:04:44;;;;;;;12.63;3.53;;;;;;;8.50;100.00;103114.69;5163969;28;20106;-76
2021/04/15 10:07:22;;;;;;;4.88;2.90;;;;;;;8.72;100.00;103113.28;5164228;28;20031;-75
2021/04/15 10:10:27;;;;;;;8.52;3.28;;;;;;;9.72;100.00;103107.50;5163652;28;20180;-75
2021/04/15 10:13:25;;;;;;;11.15;4.50;;;;;;;10.07;94.99;103105.06;5163323;28;20018;-76
2021/04/15 10:16:06;;;;;;;8.18;3.85;;;;;;;9.93;93.67;103103.31;5162915;28;20057;-77
2021/04/15 10:19:01;;;;;;;9.35;3.40;;;;;;;9.92;91.47;103104.31;5163164;28;20047;-77
2021/04/15 10:21:53;;;;;;;6.28;3.15;;;;;;;10.06;90.25;103114.94;5161957;28;20037;-77
2021/04/15 10:24:31;;;;;;;8.90;2.78;;;;;;;10.05;84.43;103107.84;5160334;28;20038;-79
2021/04/15 10:27:24;;;;;;;7.72;2.42;;;;;;;9.91;74.75;103115.16;5162569;28;20538;-79
2021/04/15 10:29:59;;;;;;;8.43;3.33;;;;;;;9.90;82.15;103106.25;5162266;28;20097;-77
2021/04/15 10:32:47;;;;;;;4.65;3.25;;;;;;;9.90;81.46;103105.38;5162000;28;20488;-79
2021/04/15 10:36:07;;;;;;;13.48;3.63;;;;;;;9.87;72.94;103106.44;5161556;28;20105;-78
2021/04/15 10:39:08;;;;;;;15.23;3.53;;;;;;;9.69;81.49;103105.91;5162123;28;20062;-77
2021/04/15 10:42:04;;;;;;;10.15;3.38;;;;;;;9.60;85.91;103106.53;5162360;28;20400;-78
2021/04/15 10:45:05;;;;;;;10.80;3.75;;;;;;;9.77;99.60;103113.41;5162576;28;20030;-78
2021/04/15 10:47:44;;;;;;;8.20;3.20;;;;;;;10.08;81.54;103102.25;5163167;28;20022;-77
2021/04/15 10:50:45;;;;;;;5.22;3.08;;;;;;;10.26;79.90;103099.28;5162822;28;20546;-78
2021/04/15 10:53:20;;;;;;;7.22;4.03;;;;;;;10.30;69.10;103095.41;5162553;28;20033;-76
2021/04/15 10:56:03;;;;;;;7.88;3.28;;;;;;;10.61;82.69;103088.69;5162978;28;20038;-79
2021/04/15 10:58:36;;;;;;;7.82;2.70;;;;;;;11.07;67.01;103094.19;5161904;28;20022;-77
2021/04/15 11:01:26;;;;;;;10.07;3.80;;;;;;;11.18;66.26;103095.22;5162410;28;20538;-78
2021/04/15 11:04:01;;;;;;;9.30;3.65;;;;;;;11.29;60.09;103092.56;5162817;28;20029;-77
2021/04/15 11:06:47;;;;;;;16.23;4.03;;;;;;;11.33;64.35;103091.38;5162259;28;20030;-78
2021/04/15 11:09:28;;;;;;;9.48;3.00;;;;;;;11.43;58.29;103084.31;5162508;28;20026;-77
2021/04/15 11:12:06;;;;;;;8.73;3.38;;;;;;;11.10;59.08;103077.84;5162415;28;20097;-78
2021/04/15 11:14:43;;;;;;;7.40;3.20;;;;;;;11.04;63.08;103080.13;5162577;28;20141;-77
2021/04/15 11:17:30;;;;;;;7.45;3.10;;;;;;;11.37;61.89;103084.78;5162796;28;20049;-78
2021/04/15 11:20:19;;;;;;;13.23;3.75;;;;;;;11.70;57.55;103075.97;5150967;28;20023;-78
2021/04/15 11:23:04;;;;;;;9.70;2.85;;;;;;;11.65;52.19;103062.88;5162121;28;20099;-78
2021/04/15 11:25:40;;;;;;;5.53;3.17;;;;;;;11.79;63.73;103072.53;5162688;28;20065;-77
2021/04/15 11:28:10;;;;;;;11.32;3.30;;;;;;;12.28;61.31;103067.81;5162781;28;20314;-77
2021/04/15 11:30:47;;;;;;;6.47;2.95;;;;;;;12.38;66.39;103068.78;5162356;28;20452;-78
2021/04/15 11:33:35;;;;;;;6.13;2.58;;;;;;;12.69;62.58;103061.75;5162243;28;20022;-79
2021/04/15 11:36:13;;;;;;;11.85;3.80;;;;;;;12.77;58.60;103062.00;5150729;28;20101;-78
2021/04/15 11:38:47;;;;;;;7.68;2.78;;;;;;;13.25;60.71;103063.41;5162699;28;20365;-77
2021/04/15 11:41:21;;;;;;;5.67;2.33;;;;;;;13.70;52.77;103050.53;5162251;28;20077;-80
2021/04/15 11:44:09;;;;;;;8.55;2.40;;;;;;;13.51;51.33;103059.38;5163333;28;20034;-79
2021/04/15 11:46:46;;;;;;;5.78;2.83;;;;;;;12.89;56.65;103052.03;5165968;28;20420;-78
2021/04/15 11:49:19;;;;;;;7.13;2.85;;;;;;;12.66;54.62;103046.72;5162187;28;20038;-79
2021/04/15 11:52:12;;;;;;;9.95;2.88;;;;;;;12.94;54.55;103047.97;5165382;28;20038;-78
2021/04/15 11:54:58;;;;;;;7.63;2.35;;;;;;;13.13;49.86;103033.81;5166733;28;20026;-79
2021/04/15 11:57:32;;;;;;;3.90;1.77;;;;;;;13.19;49.63;103037.81;5169616;28;20030;-79
2021/04/15 12:00:04;;;;;;;3.25;1.70;;;;;;;12.95;44.89;103041.63;5166810;28;20041;-82
2021/04/15 12:02:38;;;;;;;4.60;1.70;;;;;;;12.85;47.02;103031.72;5166574;28;20157;-80
2021/04/15 12:05:20;;;;;;;3.83;1.58;;;;;;;13.07;46.95;103037.03;5166175;28;20034;-78
2021/04/15 12:07:57;;;;;;;5.30;1.80;;;;;;;13.31;51.30;103039.50;5167281;28;20092;-81
2021/04/15 12:10:33;;;;;;;5.07;2.33;;;;;;;13.50;45.62;103044.16;5167432;28;20265;-79
2021/04/15 12:13:14;;;;;;;6.40;2.40;;;;;;;13.34;51.05;103035.69;5165795;28;20018;-81
2021/04/15 12:15:54;;;;;;;8.73;2.35;;;;;;;13.26;48.24;103030.97;5165484;28;20026;-79
2021/04/15 12:18:32;;;;;;;5.43;2.08;;;;;;;13.55;46.22;103036.53;5170247;28;20519;-79
2021/04/15 12:21:18;;;;;;;3.00;1.80;;;;;;;13.32;44.20;103040.38;5165268;28;20498;-80